Time,TemperatureF,DewpointF,PressureIn,WindDirection,WindDirectionDegrees,WindSpeedMPH,WindSpeedGustMPH,Humidity,HourlyPrecipIn,Conditions,Clouds,dailyrainin,SoftwareType,DateUTC
2013-03-11 00:01:00,50.0,31.0,30.25,North,0,0.0,3.0,48,0.00,,,0.00,,2013-03-11 07:01:00,
2013-03-11 00:11:00,49.0,32.0,30.25,North,0,0.0,3.0,52,0.00,,,0.00,,2013-03-11 07:11:00,
2013-03-11 00:21:00,49.0,32.0,30.25,North,0,0.0,3.0,52,0.00,,,0.00,,2013-03-11 07:21:00,
2013-03-11 00:31:00,49.0,32.0,30.25,North,0,0.0,3.0,52,0.00,,,0.00,,2013-03-11 07:31:00,
2013-03-11 00:42:00,49.0,32.0,30.25,North,0,0.0,3.0,52,0.00,,,0.00,,2013-03-11 07:42:00,
2013-03-11 00:52:00,49.0,33.0,30.24,North,0,0.0,4.0,53,0.00,,,0.00,,2013-03-11 07:52:00,
2013-03-11 01:02:00,49.0,33.0,30.24,North,0,0.0,4.0,53,0.00,,,0.00,,2013-03-11 08:02:00,
2013-03-11 01:11:00,49.0,33.0,30.24,North,0,0.0,4.0,53,0.00,,,0.00,,2013-03-11 08:11:00,
2013-03-11 01:21:00,48.0,31.0,30.24,NW,326,3.0,4.0,51,0.00,,,0.00,,2013-03-11 08:21:00,
2013-03-11 01:32:00,48.0,31.0,30.24,NNW,328,3.0,5.0,51,0.00,,,0.00,,2013-03-11 08:32:00,
2013-03-11 01:42:00,48.0,31.0,30.24,NNW,328,3.0,5.0,51,0.00,,,0.00,,2013-03-11 08:42:00,
2013-03-11 01:52:00,48.0,31.0,30.24,North,0,0.0,2.0,51,0.00,,,0.00,,2013-03-11 08:52:00,
2013-03-11 02:01:00,48.0,30.0,30.24,NW,315,1.0,4.0,50,0.00,,,0.00,,2013-03-11 09:01:00,
2013-03-11 02:11:00,48.0,30.0,30.24,NW,315,1.0,4.0,50,0.00,,,0.00,,2013-03-11 09:11:00,
2013-03-11 02:22:00,48.0,29.0,30.24,WNW,295,2.0,6.0,47,0.00,,,0.00,,2013-03-11 09:22:00,
2013-03-11 02:31:00,48.0,29.0,30.24,WNW,295,2.0,6.0,47,0.00,,,0.00,,2013-03-11 09:31:00,
2013-03-11 02:41:00,48.0,29.0,30.24,WNW,295,2.0,6.0,47,0.00,,,0.00,,2013-03-11 09:41:00,
2013-03-11 02:52:00,49.0,29.0,30.23,WNW,294,1.0,4.0,45,0.00,,,0.00,,2013-03-11 09:52:00,
2013-03-11 03:01:00,48.0,28.0,30.25,North,0,0.0,2.0,45,0.00,,,0.00,,2013-03-11 10:01:00,
2013-03-11 03:12:00,48.0,28.0,30.25,North,0,0.0,2.0,45,0.00,,,0.00,,2013-03-11 10:12:00,
2013-03-11 03:21:00,47.0,26.0,30.25,North,0,0.0,2.0,44,0.00,,,0.00,,2013-03-11 10:21:00,
2013-03-11 03:32:00,47.0,26.0,30.25,NW,306,1.0,4.0,44,0.00,,,0.00,,2013-03-11 10:32:00,
2013-03-11 03:41:00,47.0,26.0,30.25,NW,306,1.0,4.0,44,0.00,,,0.00,,2013-03-11 10:41:00,
2013-03-11 03:52:00,47.0,26.0,30.25,NW,306,1.0,4.0,44,0.00,,,0.00,,2013-03-11 10:52:00,
2013-03-11 04:11:00,47.0,26.0,30.25,NW,306,1.0,4.0,44,0.00,,,0.00,,2013-03-11 11:11:00,
2013-03-11 04:22:00,43.0,27.0,30.24,NW,321,1.0,3.0,52,0.00,,,0.00,,2013-03-11 11:22:00,
2013-03-11 04:32:00,42.0,26.0,30.21,NW,321,2.0,3.0,53,0.00,,,0.00,,2013-03-11 11:32:00,
2013-03-11 04:42:00,42.0,26.0,30.21,NW,321,2.0,3.0,53,0.00,,,0.00,,2013-03-11 11:42:00,
2013-03-11 04:52:00,42.0,27.0,30.21,North,0,0.0,3.0,54,0.00,,,0.00,,2013-03-11 11:52:00,
2013-03-11 05:02:00,42.0,27.0,30.21,NW,321,3.0,5.0,54,0.00,,,0.00,,2013-03-11 12:02:00,
2013-03-11 05:11:00,42.0,27.0,30.21,NW,321,3.0,5.0,54,0.00,,,0.00,,2013-03-11 12:11:00,
2013-03-11 05:22:00,43.0,26.0,30.20,NW,323,2.0,5.0,50,0.00,,,0.00,,2013-03-11 12:22:00,
2013-03-11 05:32:00,43.0,26.0,30.20,NW,323,1.0,4.0,50,0.00,,,0.00,,2013-03-11 12:32:00,
2013-03-11 05:42:00,43.0,26.0,30.20,NW,323,1.0,4.0,50,0.00,,,0.00,,2013-03-11 12:42:00,
2013-03-11 05:52:00,44.0,26.0,30.21,North,0,0.0,0.0,48,0.00,,,0.00,,2013-03-11 12:52:00,
2013-03-11 06:01:00,42.0,25.0,30.21,NW,323,1.0,3.0,50,0.00,,,0.00,,2013-03-11 13:01:00,
2013-03-11 06:11:00,42.0,25.0,30.21,NW,323,1.0,3.0,50,0.00,,,0.00,,2013-03-11 13:11:00,
2013-03-11 06:21:00,41.0,25.0,30.22,NW,316,1.0,4.0,53,0.00,,,0.00,,2013-03-11 13:21:00,
2013-03-11 06:31:00,40.0,25.0,30.22,NW,316,2.0,4.0,54,0.00,,,0.00,,2013-03-11 13:31:00,
2013-03-11 06:42:00,40.0,25.0,30.22,NW,316,2.0,4.0,54,0.00,,,0.00,,2013-03-11 13:42:00,
2013-03-11 06:52:00,39.0,25.0,30.22,North,0,0.0,1.0,58,0.00,,,0.00,,2013-03-11 13:52:00,
2013-03-11 07:01:00,40.0,26.0,30.22,North,0,0.0,0.0,58,0.00,,,0.00,,2013-03-11 14:01:00,
2013-03-11 07:12:00,40.0,26.0,30.22,North,0,0.0,0.0,58,0.00,,,0.00,,2013-03-11 14:12:00,
2013-03-11 07:21:00,40.0,26.0,30.23,NW,316,2.0,3.0,57,0.00,,,0.00,,2013-03-11 14:21:00,
2013-03-11 07:31:00,39.0,26.0,30.23,NW,316,3.0,4.0,59,0.00,,,0.00,,2013-03-11 14:31:00,
2013-03-11 07:41:00,39.0,26.0,30.23,NW,316,3.0,4.0,59,0.00,,,0.00,,2013-03-11 14:41:00,
2013-03-11 07:52:00,39.0,27.0,30.23,North,0,0.0,4.0,62,0.00,,,0.00,,2013-03-11 14:52:00,
2013-03-11 08:01:00,40.0,28.0,30.23,North,0,0.0,2.0,62,0.00,,,0.00,,2013-03-11 15:01:00,
2013-03-11 08:11:00,40.0,28.0,30.23,North,0,0.0,2.0,62,0.00,,,0.00,,2013-03-11 15:11:00,
2013-03-11 08:22:00,44.0,31.0,30.23,North,0,0.0,2.0,59,0.00,,,0.00,,2013-03-11 15:22:00,
2013-03-11 08:31:00,46.0,31.0,30.23,North,0,0.0,1.0,56,0.00,,,0.00,,2013-03-11 15:31:00,
2013-03-11 08:42:00,46.0,31.0,30.23,North,0,0.0,1.0,56,0.00,,,0.00,,2013-03-11 15:42:00,
2013-03-11 08:53:00,50.0,29.0,30.26,North,0,0.0,3.0,45,0.00,,,0.00,,2013-03-11 15:53:00,
2013-03-11 09:01:00,52.0,29.0,30.26,North,0,0.0,3.0,41,0.00,,,0.00,,2013-03-11 16:01:00,
2013-03-11 09:22:00,57.0,31.0,30.27,North,0,0.0,2.0,37,0.00,,,0.00,,2013-03-11 16:22:00,
2013-03-11 09:31:00,57.0,30.0,30.27,NW,309,2.0,3.0,36,0.00,,,0.00,,2013-03-11 16:31:00,
2013-03-11 09:52:00,58.0,31.0,30.27,North,0,0.0,3.0,36,0.00,,,0.00,,2013-03-11 16:52:00,
2013-03-11 10:01:00,58.0,29.0,30.27,South,174,2.0,4.0,33,0.00,,,0.00,,2013-03-11 17:01:00,
2013-03-11 10:12:00,58.0,29.0,30.27,South,174,2.0,4.0,33,0.00,,,0.00,,2013-03-11 17:12:00,
2013-03-11 10:23:00,58.0,30.0,30.27,East,96,2.0,6.0,34,0.00,,,0.00,,2013-03-11 17:23:00,
2013-03-11 10:32:00,59.0,31.0,30.27,SE,133,1.0,6.0,35,0.00,,,0.00,,2013-03-11 17:32:00,
2013-03-11 10:41:00,59.0,31.0,30.27,SE,133,1.0,6.0,35,0.00,,,0.00,,2013-03-11 17:41:00,
2013-03-11 10:52:00,60.0,32.0,30.27,East,92,2.0,4.0,35,0.00,,,0.00,,2013-03-11 17:52:00,
2013-03-11 11:01:00,61.0,32.0,30.26,SE,132,3.0,6.0,34,0.00,,,0.00,,2013-03-11 18:01:00,
2013-03-11 11:11:00,61.0,32.0,30.26,SE,132,3.0,6.0,34,0.00,,,0.00,,2013-03-11 18:11:00,
2013-03-11 11:22:00,61.0,31.0,30.26,East,80,2.0,6.0,32,0.00,,,0.00,,2013-03-11 18:22:00,
2013-03-11 11:32:00,61.0,30.0,30.26,East,91,1.0,6.0,31,0.00,,,0.00,,2013-03-11 18:32:00,
2013-03-11 11:42:00,61.0,30.0,30.26,East,91,1.0,6.0,31,0.00,,,0.00,,2013-03-11 18:42:00,
2013-03-11 11:52:00,63.0,28.0,30.26,ESE,123,3.0,7.0,26,0.00,,,0.00,,2013-03-11 18:52:00,
2013-03-11 12:01:00,63.0,26.0,30.25,ESE,120,4.0,9.0,24,0.00,,,0.00,,2013-03-11 19:01:00,
2013-03-11 12:11:00,63.0,26.0,30.25,ESE,120,4.0,9.0,24,0.00,,,0.00,,2013-03-11 19:11:00,
2013-03-11 12:22:00,64.0,24.0,30.25,East,79,3.0,8.0,22,0.00,,,0.00,,2013-03-11 19:22:00,
2013-03-11 12:32:00,64.0,23.0,30.24,SE,128,3.0,9.0,21,0.00,,,0.00,,2013-03-11 19:32:00,
2013-03-11 12:41:00,64.0,23.0,30.24,SE,128,3.0,9.0,21,0.00,,,0.00,,2013-03-11 19:41:00,
2013-03-11 12:52:00,65.0,20.0,30.24,North,0,0.0,9.0,18,0.00,,,0.00,,2013-03-11 19:52:00,
2013-03-11 13:01:00,66.0,20.0,30.23,East,101,1.0,7.0,17,0.00,,,0.00,,2013-03-11 20:01:00,
2013-03-11 13:11:00,66.0,20.0,30.23,East,101,1.0,7.0,17,0.00,,,0.00,,2013-03-11 20:11:00,
2013-03-11 13:21:00,66.0,19.0,30.23,East,81,1.0,10.0,16,0.00,,,0.00,,2013-03-11 20:21:00,
2013-03-11 13:32:00,66.0,19.0,30.23,East,81,1.0,10.0,16,0.00,,,0.00,,2013-03-11 20:32:00,
2013-03-11 13:42:00,66.0,19.0,30.23,East,81,1.0,10.0,16,0.00,,,0.00,,2013-03-11 20:42:00,
2013-03-11 13:52:00,67.0,18.0,30.20,ESE,111,4.0,9.0,15,0.00,,,0.00,,2013-03-11 20:52:00,
2013-03-11 14:02:00,67.0,16.0,30.20,ESE,114,1.0,8.0,14,0.00,,,0.00,,2013-03-11 21:02:00,
2013-03-11 14:12:00,67.0,16.0,30.20,ESE,114,1.0,8.0,14,0.00,,,0.00,,2013-03-11 21:12:00,
2013-03-11 14:21:00,68.0,19.0,30.19,East,100,1.0,7.0,15,0.00,,,0.00,,2013-03-11 21:21:00,
2013-03-11 14:31:00,68.0,17.0,30.18,SE,125,1.0,7.0,14,0.00,,,0.00,,2013-03-11 21:31:00,
2013-03-11 14:42:00,68.0,17.0,30.18,SE,125,1.0,7.0,14,0.00,,,0.00,,2013-03-11 21:42:00,
2013-03-11 14:52:00,69.0,16.0,30.17,SE,136,2.0,11.0,13,0.00,,,0.00,,2013-03-11 21:52:00,
2013-03-11 15:01:00,70.0,17.0,30.17,East,96,2.0,6.0,13,0.00,,,0.00,,2013-03-11 22:01:00,
2013-03-11 15:11:00,70.0,17.0,30.17,East,96,2.0,6.0,13,0.00,,,0.00,,2013-03-11 22:11:00,
2013-03-11 15:21:00,70.0,17.0,30.16,North,0,0.0,6.0,13,0.00,,,0.00,,2013-03-11 22:21:00,
2013-03-11 15:31:00,70.0,17.0,30.15,North,0,0.0,2.0,13,0.00,,,0.00,,2013-03-11 22:31:00,
2013-03-11 15:42:00,70.0,17.0,30.15,North,0,0.0,2.0,13,0.00,,,0.00,,2013-03-11 22:42:00,
2013-03-11 15:53:00,71.0,18.0,30.15,North,0,0.0,9.0,13,0.00,,,0.00,,2013-03-11 22:53:00,
2013-03-11 16:01:00,71.0,16.0,30.14,SW,224,4.0,10.0,12,0.00,,,0.00,,2013-03-11 23:01:00,
2013-03-11 16:11:00,71.0,16.0,30.14,SW,224,4.0,10.0,12,0.00,,,0.00,,2013-03-11 23:11:00,
2013-03-11 16:21:00,71.0,16.0,30.14,North,0,0.0,6.0,12,0.00,,,0.00,,2013-03-11 23:21:00,
2013-03-11 16:32:00,72.0,17.0,30.13,North,0,0.0,6.0,12,0.00,,,0.00,,2013-03-11 23:32:00,
2013-03-11 16:42:00,72.0,17.0,30.13,SSW,208,2.0,7.0,12,0.00,,,0.00,,2013-03-11 23:42:00,
2013-03-11 16:53:00,72.0,17.0,30.13,SSW,208,2.0,7.0,12,0.00,,,0.00,,2013-03-11 23:53:00,
2013-03-11 17:01:00,72.0,15.0,30.11,SE,132,1.0,6.0,11,0.00,,,0.00,,2013-03-12 00:01:00,
2013-03-11 17:11:00,72.0,15.0,30.11,SE,132,1.0,6.0,11,0.00,,,0.00,,2013-03-12 00:11:00,
2013-03-11 17:22:00,72.0,15.0,30.11,North,0,0.0,6.0,11,0.00,,,0.00,,2013-03-12 00:22:00,
2013-03-11 17:32:00,72.0,17.0,30.11,South,183,2.0,6.0,12,0.00,,,0.00,,2013-03-12 00:32:00,
2013-03-11 17:42:00,72.0,17.0,30.11,South,183,2.0,6.0,12,0.00,,,0.00,,2013-03-12 00:42:00,
2013-03-11 17:53:00,72.0,15.0,30.10,South,169,1.0,6.0,11,0.00,,,0.00,,2013-03-12 00:53:00,
2013-03-11 18:01:00,72.0,15.0,30.10,SSE,168,1.0,3.0,11,0.00,,,0.00,,2013-03-12 01:01:00,
2013-03-11 18:11:00,72.0,15.0,30.10,SSE,168,1.0,3.0,11,0.00,,,0.00,,2013-03-12 01:11:00,
2013-03-11 18:21:00,71.0,14.0,30.09,SSE,168,3.0,5.0,11,0.00,,,0.00,,2013-03-12 01:21:00,
2013-03-11 18:32:00,71.0,14.0,30.09,SSE,164,1.0,5.0,11,0.00,,,0.00,,2013-03-12 01:32:00,
2013-03-11 18:42:00,71.0,14.0,30.09,SSE,164,1.0,5.0,11,0.00,,,0.00,,2013-03-12 01:42:00,
2013-03-11 18:52:00,70.0,15.0,30.09,North,0,0.0,4.0,12,0.00,,,0.00,,2013-03-12 01:52:00,
2013-03-11 19:01:00,70.0,17.0,30.09,North,0,0.0,3.0,13,0.00,,,0.00,,2013-03-12 02:01:00,
2013-03-11 19:21:00,66.0,27.0,30.10,WNW,301,2.0,7.0,23,0.00,,,0.00,,2013-03-12 02:21:00,
2013-03-11 19:31:00,64.0,34.0,30.10,WNW,298,4.0,9.0,32,0.00,,,0.00,,2013-03-12 02:31:00,
2013-03-11 19:52:00,63.0,33.0,30.10,WNW,294,5.0,10.0,33,0.00,,,0.00,,2013-03-12 02:52:00,
2013-03-11 20:01:00,62.0,34.0,30.10,WNW,289,6.0,13.0,35,0.00,,,0.00,,2013-03-12 03:01:00,
2013-03-11 20:11:00,62.0,34.0,30.10,WNW,289,6.0,13.0,35,0.00,,,0.00,,2013-03-12 03:11:00,
2013-03-11 20:22:00,61.0,36.0,30.11,West,273,5.0,9.0,39,0.00,,,0.00,,2013-03-12 03:22:00,
2013-03-11 20:31:00,61.0,36.0,30.10,WNW,295,8.0,13.0,39,0.00,,,0.00,,2013-03-12 03:31:00,
2013-03-11 20:42:00,61.0,36.0,30.10,WNW,295,8.0,13.0,39,0.00,,,0.00,,2013-03-12 03:42:00,
2013-03-11 20:52:00,61.0,35.0,30.10,WNW,298,7.0,13.0,38,0.00,,,0.00,,2013-03-12 03:52:00,
2013-03-11 21:01:00,61.0,35.0,30.11,WNW,289,6.0,13.0,37,0.00,,,0.00,,2013-03-12 04:01:00,
2013-03-11 21:12:00,61.0,35.0,30.11,WNW,289,6.0,13.0,37,0.00,,,0.00,,2013-03-12 04:12:00,
2013-03-11 21:22:00,61.0,35.0,30.11,WNW,293,8.0,15.0,37,0.00,,,0.00,,2013-03-12 04:22:00,
2013-03-11 21:32:00,60.0,34.0,30.11,WNW,291,7.0,12.0,37,0.00,,,0.00,,2013-03-12 04:32:00,
2013-03-11 21:42:00,60.0,34.0,30.11,WNW,291,7.0,12.0,37,0.00,,,0.00,,2013-03-12 04:42:00,
2013-03-11 21:52:00,59.0,31.0,30.12,WNW,295,4.0,7.0,35,0.00,,,0.00,,2013-03-12 04:52:00,
2013-03-11 22:02:00,59.0,31.0,30.12,WNW,285,4.0,7.0,35,0.00,,,0.00,,2013-03-12 05:02:00,
2013-03-11 22:11:00,59.0,31.0,30.12,WNW,285,4.0,7.0,35,0.00,,,0.00,,2013-03-12 05:11:00,
2013-03-11 22:21:00,57.0,31.0,30.13,WNW,297,1.0,10.0,37,0.00,,,0.00,,2013-03-12 05:21:00,
2013-03-11 22:31:00,57.0,30.0,30.13,WNW,293,6.0,10.0,36,0.00,,,0.00,,2013-03-12 05:31:00,
2013-03-11 22:41:00,57.0,30.0,30.13,WNW,293,6.0,10.0,36,0.00,,,0.00,,2013-03-12 05:41:00,
2013-03-11 22:52:00,56.0,33.0,30.13,WNW,291,4.0,9.0,42,0.00,,,0.00,,2013-03-12 05:52:00,
2013-03-11 23:01:00,55.0,33.0,30.13,West,280,4.0,7.0,44,0.00,,,0.00,,2013-03-12 06:01:00,
2013-03-11 23:11:00,55.0,33.0,30.13,West,280,4.0,7.0,44,0.00,,,0.00,,2013-03-12 06:11:00,
2013-03-11 23:21:00,54.0,31.0,30.14,WNW,289,3.0,6.0,42,0.00,,,0.00,,2013-03-12 06:21:00,
2013-03-11 23:31:00,54.0,32.0,30.14,WNW,298,2.0,5.0,43,0.00,,,0.00,,2013-03-12 06:31:00,
2013-03-11 23:42:00,54.0,32.0,30.14,WNW,298,2.0,5.0,43,0.00,,,0.00,,2013-03-12 06:42:00,
2013-03-11 23:52:00,55.0,33.0,30.14,WNW,295,2.0,6.0,43,0.00,,,0.00,,2013-03-12 06:52:00,